sensor_id;sensor_type;location;lat;lon;timestamp;P1;durP1;ratioP1;P2;durP2;ratioP2
47113;SDS011;32867;51.556;6.832;2023-09-30T00:03:45;9.18;;;3.20;;
47113;SDS011;32867;51.556;6.832;2023-09-30T00:08:46;7.60;;;2.67;;
47113;SDS011;32867;51.556;6.832;2023-09-30T00:13:46;7.03;;;2.88;;
47113;SDS011;32867;51.556;6.832;2023-09-30T00:18:49;7.93;;;2.85;;
47113;SDS011;32867;51.556;6.832;2023-09-30T00:23:49;6.13;;;3.03;;
47113;SDS011;32867;51.556;6.832;2023-09-30T00:28:50;7.80;;;2.72;;
47113;SDS011;32867;51.556;6.832;2023-09-30T00:33:51;7.68;;;2.95;;
47113;SDS011;32867;51.556;6.832;2023-09-30T00:38:51;7.00;;;3.03;;
47113;SDS011;32867;51.556;6.832;2023-09-30T00:43:52;8.25;;;3.35;;
47113;SDS011;32867;51.556;6.832;2023-09-30T00:48:54;8.43;;;3.05;;
47113;SDS011;32867;51.556;6.832;2023-09-30T00:53:58;6.55;;;2.90;;
47113;SDS011;32867;51.556;6.832;2023-09-30T00:59:00;8.80;;;3.50;;
47113;SDS011;32867;51.556;6.832;2023-09-30T01:04:01;7.72;;;3.85;;
47113;SDS011;32867;51.556;6.832;2023-09-30T01:09:02;11.57;;;3.83;;
47113;SDS011;32867;51.556;6.832;2023-09-30T01:14:03;10.93;;;4.03;;
47113;SDS011;32867;51.556;6.832;2023-09-30T01:19:04;10.20;;;4.07;;
47113;SDS011;32867;51.556;6.832;2023-09-30T01:24:04;10.70;;;3.88;;
47113;SDS011;32867;51.556;6.832;2023-09-30T01:29:05;12.07;;;3.72;;
47113;SDS011;32867;51.556;6.832;2023-09-30T01:34:06;13.38;;;5.43;;
47113;SDS011;32867;51.556;6.832;2023-09-30T01:39:08;13.63;;;4.60;;
47113;SDS011;32867;51.556;6.832;2023-09-30T01:44:10;10.00;;;4.30;;
47113;SDS011;32867;51.556;6.832;2023-09-30T01:49:11;10.50;;;3.75;;
47113;SDS011;32867;51.556;6.832;2023-09-30T01:54:12;10.60;;;4.25;;
47113;SDS011;32867;51.556;6.832;2023-09-30T01:59:13;9.10;;;3.65;;
47113;SDS011;32867;51.556;6.832;2023-09-30T02:04:13;11.68;;;4.82;;
47113;SDS011;32867;51.556;6.832;2023-09-30T02:09:15;11.68;;;4.32;;
47113;SDS011;32867;51.556;6.832;2023-09-30T02:14:16;11.43;;;3.78;;
47113;SDS011;32867;51.556;6.832;2023-09-30T02:19:17;9.68;;;4.15;;
47113;SDS011;32867;51.556;6.832;2023-09-30T02:24:17;9.15;;;3.88;;
47113;SDS011;32867;51.556;6.832;2023-09-30T02:29:18;8.95;;;3.72;;
47113;SDS011;32867;51.556;6.832;2023-09-30T02:34:20;7.68;;;3.30;;
47113;SDS011;32867;51.556;6.832;2023-09-30T02:39:20;7.32;;;3.05;;
47113;SDS011;32867;51.556;6.832;2023-09-30T02:44:21;9.23;;;3.47;;
47113;SDS011;32867;51.556;6.832;2023-09-30T02:49:21;12.45;;;5.50;;
47113;SDS011;32867;51.556;6.832;2023-09-30T02:54:22;11.05;;;3.83;;
47113;SDS011;32867;51.556;6.832;2023-09-30T02:59:23;8.32;;;3.60;;
47113;SDS011;32867;51.556;6.832;2023-09-30T03:04:24;8.13;;;4.15;;
47113;SDS011;32867;51.556;6.832;2023-09-30T03:09:26;5.53;;;2.97;;
47113;SDS011;32867;51.556;6.832;2023-09-30T03:14:26;7.57;;;3.25;;
47113;SDS011;32867;51.556;6.832;2023-09-30T03:19:30;11.05;;;3.97;;
47113;SDS011;32867;51.556;6.832;2023-09-30T03:24:31;10.20;;;3.55;;
47113;SDS011;32867;51.556;6.832;2023-09-30T03:29:32;9.57;;;4.20;;
47113;SDS011;32867;51.556;6.832;2023-09-30T03:34:35;8.68;;;4.07;;
47113;SDS011;32867;51.556;6.832;2023-09-30T03:39:46;8.98;;;4.00;;
47113;SDS011;32867;51.556;6.832;2023-09-30T03:44:49;9.77;;;3.67;;
47113;SDS011;32867;51.556;6.832;2023-09-30T03:49:51;13.07;;;5.18;;
47113;SDS011;32867;51.556;6.832;2023-09-30T03:54:54;11.02;;;4.90;;
47113;SDS011;32867;51.556;6.832;2023-09-30T03:59:54;9.25;;;4.40;;
47113;SDS011;32867;51.556;6.832;2023-09-30T04:04:55;13.35;;;5.53;;
47113;SDS011;32867;51.556;6.832;2023-09-30T04:09:57;10.85;;;4.80;;
47113;SDS011;32867;51.556;6.832;2023-09-30T04:15:01;10.13;;;4.22;;
47113;SDS011;32867;51.556;6.832;2023-09-30T04:20:05;10.18;;;4.47;;
47113;SDS011;32867;51.556;6.832;2023-09-30T04:25:09;12.15;;;5.10;;
47113;SDS011;32867;51.556;6.832;2023-09-30T04:30:10;8.65;;;4.50;;
47113;SDS011;32867;51.556;6.832;2023-09-30T04:35:11;10.63;;;4.93;;
47113;SDS011;32867;51.556;6.832;2023-09-30T04:40:12;13.30;;;5.00;;
47113;SDS011;32867;51.556;6.832;2023-09-30T04:45:15;9.10;;;4.50;;
47113;SDS011;32867;51.556;6.832;2023-09-30T04:50:24;11.93;;;4.97;;
47113;SDS011;32867;51.556;6.832;2023-09-30T04:55:25;9.60;;;4.47;;
47113;SDS011;32867;51.556;6.832;2023-09-30T05:00:26;11.25;;;5.25;;
47113;SDS011;32867;51.556;6.832;2023-09-30T05:05:28;11.32;;;5.30;;
47113;SDS011;32867;51.556;6.832;2023-09-30T05:10:28;11.13;;;5.07;;
47113;SDS011;32867;51.556;6.832;2023-09-30T05:15:29;14.07;;;5.20;;
47113;SDS011;32867;51.556;6.832;2023-09-30T05:20:32;12.70;;;5.35;;
47113;SDS011;32867;51.556;6.832;2023-09-30T05:25:32;12.07;;;5.47;;
47113;SDS011;32867;51.556;6.832;2023-09-30T05:30:33;13.13;;;5.28;;
47113;SDS011;32867;51.556;6.832;2023-09-30T05:35:34;13.55;;;6.10;;
47113;SDS011;32867;51.556;6.832;2023-09-30T05:40:34;11.25;;;5.55;;
47113;SDS011;32867;51.556;6.832;2023-09-30T05:45:35;11.70;;;5.65;;
47113;SDS011;32867;51.556;6.832;2023-09-30T05:50:35;10.98;;;5.28;;
47113;SDS011;32867;51.556;6.832;2023-09-30T05:55:37;11.07;;;5.50;;
47113;SDS011;32867;51.556;6.832;2023-09-30T06:00:41;11.10;;;6.15;;
47113;SDS011;32867;51.556;6.832;2023-09-30T06:05:43;13.45;;;6.80;;
47113;SDS011;32867;51.556;6.832;2023-09-30T06:10:43;12.20;;;6.50;;
47113;SDS011;32867;51.556;6.832;2023-09-30T06:15:44;11.73;;;5.78;;
47113;SDS011;32867;51.556;6.832;2023-09-30T06:20:46;12.40;;;6.20;;
47113;SDS011;32867;51.556;6.832;2023-09-30T06:25:47;15.02;;;7.10;;
47113;SDS011;32867;51.556;6.832;2023-09-30T06:30:47;13.32;;;7.25;;
47113;SDS011;32867;51.556;6.832;2023-09-30T06:35:50;12.27;;;7.00;;
47113;SDS011;32867;51.556;6.832;2023-09-30T06:40:51;14.40;;;7.45;;
47113;SDS011;32867;51.556;6.832;2023-09-30T06:45:52;15.65;;;8.05;;
47113;SDS011;32867;51.556;6.832;2023-09-30T06:50:52;14.18;;;7.05;;
47113;SDS011;32867;51.556;6.832;2023-09-30T06:55:54;13.68;;;8.57;;
47113;SDS011;32867;51.556;6.832;2023-09-30T07:00:55;14.93;;;7.93;;
47113;SDS011;32867;51.556;6.832;2023-09-30T07:05:55;14.43;;;8.98;;
47113;SDS011;32867;51.556;6.832;2023-09-30T07:11:00;17.58;;;8.77;;
47113;SDS011;32867;51.556;6.832;2023-09-30T07:16:02;15.35;;;9.27;;
47113;SDS011;32867;51.556;6.832;2023-09-30T07:21:02;15.65;;;9.63;;
47113;SDS011;32867;51.556;6.832;2023-09-30T07:26:03;23.27;;;14.43;;
47113;SDS011;32867;51.556;6.832;2023-09-30T07:31:04;19.33;;;10.68;;
47113;SDS011;32867;51.556;6.832;2023-09-30T07:36:04;16.70;;;10.23;;
47113;SDS011;32867;51.556;6.832;2023-09-30T07:41:05;20.17;;;12.70;;
47113;SDS011;32867;51.556;6.832;2023-09-30T07:46:06;34.42;;;17.05;;
47113;SDS011;32867;51.556;6.832;2023-09-30T07:51:07;23.67;;;13.82;;
47113;SDS011;32867;51.556;6.832;2023-09-30T07:56:13;20.27;;;12.77;;
47113;SDS011;32867;51.556;6.832;2023-09-30T08:01:14;21.05;;;13.80;;
47113;SDS011;32867;51.556;6.832;2023-09-30T08:06:15;24.65;;;16.20;;
47113;SDS011;32867;51.556;6.832;2023-09-30T08:11:17;23.25;;;14.35;;
47113;SDS011;32867;51.556;6.832;2023-09-30T08:16:18;30.25;;;17.15;;
47113;SDS011;32867;51.556;6.832;2023-09-30T08:21:19;22.48;;;14.88;;
47113;SDS011;32867;51.556;6.832;2023-09-30T08:26:19;23.42;;;15.73;;
47113;SDS011;32867;51.556;6.832;2023-09-30T08:31:20;25.55;;;18.65;;
47113;SDS011;32867;51.556;6.832;2023-09-30T08:36:21;24.88;;;17.38;;
47113;SDS011;32867;51.556;6.832;2023-09-30T08:41:40;17.92;;;12.90;;
47113;SDS011;32867;51.556;6.832;2023-09-30T08:46:44;22.20;;;15.18;;
47113;SDS011;32867;51.556;6.832;2023-09-30T08:51:45;16.63;;;11.25;;
47113;SDS011;32867;51.556;6.832;2023-09-30T08:56:49;21.95;;;12.48;;
47113;SDS011;32867;51.556;6.832;2023-09-30T09:01:50;19.80;;;11.65;;
47113;SDS011;32867;51.556;6.832;2023-09-30T09:06:53;18.10;;;9.80;;
47113;SDS011;32867;51.556;6.832;2023-09-30T09:11:55;14.65;;;7.97;;
47113;SDS011;32867;51.556;6.832;2023-09-30T09:16:57;15.18;;;7.90;;
47113;SDS011;32867;51.556;6.832;2023-09-30T09:21:58;14.35;;;8.00;;
47113;SDS011;32867;51.556;6.832;2023-09-30T09:32:07;15.90;;;8.40;;
47113;SDS011;32867;51.556;6.832;2023-09-30T09:37:15;16.10;;;8.48;;
47113;SDS011;32867;51.556;6.832;2023-09-30T09:42:23;11.05;;;6.60;;
47113;SDS011;32867;51.556;6.832;2023-09-30T09:47:31;11.88;;;6.05;;
47113;SDS011;32867;51.556;6.832;2023-09-30T09:52:33;11.80;;;5.18;;
47113;SDS011;32867;51.556;6.832;2023-09-30T09:57:34;10.70;;;5.40;;
47113;SDS011;32867;51.556;6.832;2023-09-30T10:02:36;13.55;;;7.38;;
47113;SDS011;32867;51.556;6.832;2023-09-30T10:07:52;11.35;;;6.25;;
47113;SDS011;32867;51.556;6.832;2023-09-30T10:12:56;15.60;;;7.15;;
47113;SDS011;32867;51.556;6.832;2023-09-30T10:18:07;14.82;;;7.22;;
47113;SDS011;32867;51.556;6.832;2023-09-30T10:28:34;17.00;;;5.57;;
47113;SDS011;32867;51.556;6.832;2023-09-30T10:38:36;11.88;;;4.85;;
47113;SDS011;32867;51.556;6.832;2023-09-30T10:43:40;7.43;;;4.10;;
47113;SDS011;32867;51.556;6.832;2023-09-30T10:48:41;11.60;;;4.13;;
47113;SDS011;32867;51.556;6.832;2023-09-30T10:53:47;10.07;;;3.90;;
47113;SDS011;32867;51.556;6.832;2023-09-30T10:58:52;9.10;;;4.10;;
47113;SDS011;32867;51.556;6.832;2023-09-30T11:03:58;12.73;;;4.70;;
47113;SDS011;32867;51.556;6.832;2023-09-30T11:09:03;11.40;;;4.55;;
47113;SDS011;32867;51.556;6.832;2023-09-30T11:14:04;8.82;;;3.97;;
47113;SDS011;32867;51.556;6.832;2023-09-30T11:19:27;12.88;;;4.50;;
47113;SDS011;32867;51.556;6.832;2023-09-30T11:24:35;6.55;;;3.83;;
47113;SDS011;32867;51.556;6.832;2023-09-30T11:29:36;7.47;;;3.33;;
47113;SDS011;32867;51.556;6.832;2023-09-30T11:34:37;7.80;;;3.05;;
47113;SDS011;32867;51.556;6.832;2023-09-30T11:39:37;9.50;;;2.58;;
47113;SDS011;32867;51.556;6.832;2023-09-30T11:44:44;9.68;;;3.53;;
47113;SDS011;32867;51.556;6.832;2023-09-30T11:49:52;6.78;;;2.92;;
47113;SDS011;32867;51.556;6.832;2023-09-30T11:54:54;8.25;;;3.00;;
47113;SDS011;32867;51.556;6.832;2023-09-30T11:59:56;7.15;;;3.13;;
47113;SDS011;32867;51.556;6.832;2023-09-30T12:04:56;7.70;;;3.42;;
47113;SDS011;32867;51.556;6.832;2023-09-30T12:09:58;9.63;;;3.90;;
47113;SDS011;32867;51.556;6.832;2023-09-30T21:19:24;11.48;;;6.32;;
47113;SDS011;32867;51.556;6.832;2023-09-30T21:24:24;12.82;;;6.05;;
47113;SDS011;32867;51.556;6.832;2023-09-30T21:29:25;7.57;;;4.88;;
47113;SDS011;32867;51.556;6.832;2023-09-30T21:34:26;7.88;;;5.20;;
47113;SDS011;32867;51.556;6.832;2023-09-30T21:39:26;9.20;;;5.70;;
47113;SDS011;32867;51.556;6.832;2023-09-30T21:44:27;10.23;;;5.80;;
47113;SDS011;32867;51.556;6.832;2023-09-30T21:49:28;8.82;;;5.70;;
47113;SDS011;32867;51.556;6.832;2023-09-30T21:54:28;8.63;;;5.30;;
47113;SDS011;32867;51.556;6.832;2023-09-30T21:59:29;12.80;;;6.03;;
47113;SDS011;32867;51.556;6.832;2023-09-30T22:04:30;8.68;;;5.90;;
47113;SDS011;32867;51.556;6.832;2023-09-30T22:09:30;7.93;;;5.18;;
47113;SDS011;32867;51.556;6.832;2023-09-30T22:14:33;6.88;;;4.57;;
47113;SDS011;32867;51.556;6.832;2023-09-30T22:19:34;7.82;;;4.78;;
47113;SDS011;32867;51.556;6.832;2023-09-30T22:24:35;8.00;;;5.13;;
47113;SDS011;32867;51.556;6.832;2023-09-30T22:29:36;10.75;;;6.00;;
47113;SDS011;32867;51.556;6.832;2023-09-30T22:34:36;9.77;;;5.70;;
47113;SDS011;32867;51.556;6.832;2023-09-30T22:39:37;8.95;;;5.68;;
47113;SDS011;32867;51.556;6.832;2023-09-30T22:44:38;11.85;;;5.43;;
47113;SDS011;32867;51.556;6.832;2023-09-30T22:49:38;8.35;;;5.32;;
47113;SDS011;32867;51.556;6.832;2023-09-30T22:54:39;8.95;;;6.20;;
47113;SDS011;32867;51.556;6.832;2023-09-30T22:59:40;8.82;;;5.63;;
47113;SDS011;32867;51.556;6.832;2023-09-30T23:04:40;10.85;;;5.82;;
47113;SDS011;32867;51.556;6.832;2023-09-30T23:09:42;11.00;;;5.85;;
47113;SDS011;32867;51.556;6.832;2023-09-30T23:14:42;8.90;;;6.55;;
47113;SDS011;32867;51.556;6.832;2023-09-30T23:19:43;8.50;;;5.35;;
47113;SDS011;32867;51.556;6.832;2023-09-30T23:24:44;10.57;;;6.38;;
47113;SDS011;32867;51.556;6.832;2023-09-30T23:29:47;10.48;;;6.10;;
47113;SDS011;32867;51.556;6.832;2023-09-30T23:34:49;11.05;;;6.28;;
47113;SDS011;32867;51.556;6.832;2023-09-30T23:39:49;10.27;;;6.50;;
47113;SDS011;32867;51.556;6.832;2023-09-30T23:44:50;9.77;;;6.18;;
47113;SDS011;32867;51.556;6.832;2023-09-30T23:49:52;10.48;;;6.60;;
47113;SDS011;32867;51.556;6.832;2023-09-30T23:54:53;9.35;;;6.57;;
47113;SDS011;32867;51.556;6.832;2023-09-30T23:59:55;11.95;;;8.45;;
